createdAt,value
2023-05-11T00:01:16.440Z,33.22
2023-05-11T00:03:43.678Z,33.19
2023-05-11T00:06:10.658Z,33.29
2023-05-11T00:08:37.752Z,33.36
2023-05-11T00:11:07.872Z,33.31
2023-05-11T00:13:34.866Z,33.25
2023-05-11T00:16:01.742Z,33.13
2023-05-11T00:18:28.809Z,33.74
2023-05-11T00:20:56.691Z,33.27
2023-05-11T00:23:23.864Z,33.37
2023-05-11T00:25:50.772Z,33.48
2023-05-11T00:28:17.738Z,33.65
2023-05-11T00:30:45.383Z,33.64
2023-05-11T00:33:12.369Z,33.51
2023-05-11T00:35:39.104Z,33.42
2023-05-11T00:38:06.124Z,33.29
2023-05-11T00:40:32.962Z,33.28
2023-05-11T00:43:00.004Z,33.40
2023-05-11T00:45:26.864Z,33.74
2023-05-11T00:47:53.935Z,33.58
2023-05-11T00:50:20.823Z,33.82
2023-05-11T00:52:47.874Z,33.47
2023-05-11T00:55:14.681Z,33.48
2023-05-11T00:57:41.696Z,33.66
2023-05-11T01:00:09.043Z,33.71
2023-05-11T01:02:36.200Z,33.47
2023-05-11T01:05:03.179Z,33.49
2023-05-11T01:07:35.421Z,33.87
2023-05-11T01:10:30.089Z,33.73
2023-05-11T01:13:02.356Z,33.67
2023-05-11T01:15:51.540Z,33.73
2023-05-11T01:18:24.097Z,33.70
2023-05-11T01:20:53.392Z,33.98
2023-05-11T01:23:56.305Z,33.88
2023-05-11T01:26:44.461Z,33.72
2023-05-11T01:29:26.293Z,33.69
2023-05-11T01:31:54.778Z,33.78
2023-05-11T01:34:23.590Z,33.85
2023-05-11T01:36:58.872Z,33.64
2023-05-11T01:39:30.777Z,33.87
2023-05-11T01:41:57.473Z,33.86
2023-05-11T01:44:25.858Z,33.90
2023-05-11T01:46:52.590Z,34.08
2023-05-11T01:49:19.615Z,33.92
2023-05-11T01:51:46.302Z,33.67
2023-05-11T01:54:13.358Z,33.74
2023-05-11T01:56:40.885Z,33.89
2023-05-11T01:59:07.960Z,34.13
2023-05-11T02:01:35.767Z,33.93
2023-05-11T02:04:04.080Z,34.20
2023-05-11T02:06:31.061Z,33.88
2023-05-11T02:08:58.111Z,33.78
2023-05-11T02:11:25.018Z,34.04
2023-05-11T02:13:52.049Z,33.72
2023-05-11T02:16:19.018Z,33.72
2023-05-11T02:18:46.352Z,34.02
2023-05-11T02:21:13.485Z,33.91
2023-05-11T02:23:40.514Z,33.99
2023-05-11T02:26:07.187Z,34.01
2023-05-11T02:28:34.204Z,34.21
2023-05-11T02:31:03.447Z,34.09
2023-05-11T02:33:35.523Z,34.25
2023-05-11T02:36:02.324Z,34.25
2023-05-11T02:38:33.792Z,33.79
2023-05-11T02:41:09.348Z,34.17
2023-05-11T02:43:37.328Z,34.18
2023-05-11T02:46:08.896Z,33.90
2023-05-11T02:48:40.055Z,34.26
2023-05-11T02:51:07.803Z,34.00
2023-05-11T02:53:34.931Z,34.11
2023-05-11T02:56:01.774Z,34.29
2023-05-11T02:58:32.398Z,34.35
2023-05-11T03:00:59.243Z,34.40
2023-05-11T03:03:27.075Z,34.35
2023-05-11T03:05:53.892Z,34.31
2023-05-11T03:08:20.918Z,34.19
2023-05-11T03:10:47.618Z,34.38
2023-05-11T03:13:16.160Z,34.23
2023-05-11T03:15:42.902Z,34.31
2023-05-11T03:18:10.018Z,34.35
2023-05-11T03:20:37.335Z,34.29
2023-05-11T03:23:05.446Z,34.66
2023-05-11T03:25:32.178Z,34.12
2023-05-11T03:27:59.278Z,34.40
2023-05-11T03:30:26.217Z,34.43
2023-05-11T03:32:53.254Z,34.58
2023-05-11T03:35:20.620Z,34.46
2023-05-11T03:37:47.636Z,34.34
2023-05-11T03:40:14.939Z,34.48
2023-05-11T03:42:41.959Z,34.29
2023-05-11T03:45:09.055Z,34.34
2023-05-11T03:47:36.092Z,34.42
2023-05-11T03:50:03.098Z,34.45
2023-05-11T03:52:30.186Z,34.46
2023-05-11T03:54:56.921Z,34.34
2023-05-11T03:57:27.070Z,34.64
2023-05-11T03:59:53.785Z,34.76
2023-05-11T04:02:22.013Z,34.44
2023-05-11T04:04:48.967Z,34.67
2023-05-11T04:07:16.099Z,34.58
2023-05-11T04:09:42.802Z,34.72
2023-05-11T04:12:09.880Z,34.62
2023-05-11T04:14:36.569Z,34.59
2023-05-11T04:17:03.548Z,34.60
2023-05-11T04:19:30.373Z,34.70
2023-05-11T04:21:57.379Z,34.46
2023-05-11T04:24:24.145Z,34.50
2023-05-11T04:26:55.918Z,34.50
2023-05-11T04:29:22.601Z,34.57
2023-05-11T04:31:50.011Z,34.63
2023-05-11T04:34:16.784Z,34.55
2023-05-11T04:36:44.089Z,34.57
2023-05-11T04:39:10.758Z,34.60
2023-05-11T04:41:37.775Z,34.59
2023-05-11T04:44:04.991Z,34.46
2023-05-11T04:46:32.075Z,34.81
2023-05-11T04:48:58.826Z,34.57
2023-05-11T04:51:25.908Z,34.79
2023-05-11T04:53:52.752Z,34.51
2023-05-11T04:56:21.494Z,34.72
2023-05-11T04:58:48.299Z,34.76
2023-05-11T05:01:15.388Z,34.63
2023-05-11T05:03:42.258Z,34.78
2023-05-11T05:06:09.497Z,34.78
2023-05-11T05:08:36.189Z,35.04
2023-05-11T05:11:03.250Z,35.07
2023-05-11T05:13:29.964Z,34.93
2023-05-11T05:15:57.173Z,34.73
2023-05-11T05:18:23.895Z,35.17
2023-05-11T05:20:50.912Z,35.14
2023-05-11T05:23:17.612Z,35.13
2023-05-11T05:25:44.690Z,34.79
2023-05-11T05:28:11.485Z,35.14
2023-05-11T05:30:38.570Z,34.96
2023-05-11T05:33:05.459Z,34.50
2023-05-11T05:35:32.673Z,34.68
2023-05-11T05:37:59.393Z,34.48
2023-05-11T05:40:26.605Z,34.67
2023-05-11T05:42:53.342Z,34.98
2023-05-11T05:45:20.515Z,34.67
2023-05-11T05:47:49.108Z,34.82
2023-05-11T05:50:16.473Z,34.64
2023-05-11T05:52:43.287Z,34.63
2023-05-11T05:55:10.378Z,34.61
2023-05-11T05:57:37.174Z,34.75
2023-05-11T06:00:04.651Z,34.53
2023-05-11T06:02:31.511Z,34.31
2023-05-11T06:04:59.105Z,34.28
2023-05-11T06:07:27.444Z,34.22
2023-05-11T06:09:54.510Z,34.07
2023-05-11T06:12:21.279Z,33.90
2023-05-11T06:14:48.344Z,34.01
2023-05-11T06:17:15.148Z,34.02
2023-05-11T06:19:42.678Z,34.11
2023-05-11T06:22:09.457Z,33.79
2023-05-11T06:24:36.546Z,33.78
2023-05-11T06:27:03.422Z,33.99
2023-05-11T06:29:30.641Z,33.74
2023-05-11T06:31:58.035Z,33.77
2023-05-11T06:34:25.274Z,33.65
2023-05-11T06:36:52.122Z,33.90
2023-05-11T06:39:19.187Z,34.00
2023-05-11T06:41:46.124Z,33.91
2023-05-11T06:44:13.278Z,33.68
2023-05-11T06:46:40.120Z,33.85
2023-05-11T06:49:08.733Z,33.77
2023-05-11T06:51:35.587Z,33.62
2023-05-11T06:54:02.766Z,33.85
2023-05-11T06:56:29.730Z,33.48
2023-05-11T06:58:56.901Z,33.53
2023-05-11T07:01:23.701Z,33.73
2023-05-11T07:03:52.735Z,33.74
2023-05-11T07:06:21.691Z,33.49
2023-05-11T07:08:48.779Z,33.71
2023-05-11T07:11:15.836Z,33.57
2023-05-11T07:13:43.062Z,33.54
2023-05-11T07:16:09.907Z,33.50
2023-05-11T07:18:36.954Z,33.51
2023-05-11T07:21:03.819Z,33.43
2023-05-11T07:23:30.903Z,33.57
2023-05-11T07:25:58.252Z,33.36
2023-05-11T07:28:25.359Z,33.49
2023-05-11T07:30:52.232Z,33.43
2023-05-11T07:33:19.349Z,33.53
2023-05-11T07:35:46.219Z,33.13
2023-05-11T07:38:13.849Z,33.21
2023-05-11T07:40:40.650Z,33.12
2023-05-11T07:43:07.844Z,33.21
2023-05-11T07:45:34.742Z,33.22
2023-05-11T07:48:01.902Z,32.82
2023-05-11T07:50:28.820Z,33.25
2023-05-11T07:52:55.909Z,33.02
2023-05-11T07:55:25.091Z,32.76
2023-05-11T07:57:54.279Z,32.77
2023-05-11T08:00:21.924Z,32.96
2023-05-11T08:02:49.003Z,32.69
2023-05-11T08:05:17.501Z,32.80
2023-05-11T08:07:44.696Z,32.98
2023-05-11T08:10:12.073Z,32.90
2023-05-11T08:12:39.180Z,33.01
2023-05-11T08:15:06.298Z,33.05
2023-05-11T08:17:33.350Z,32.51
2023-05-11T08:20:00.121Z,32.97
2023-05-11T08:22:27.443Z,32.61
2023-05-11T08:24:54.221Z,32.44
2023-05-11T08:27:21.258Z,32.81
2023-05-11T08:29:47.975Z,32.95
2023-05-11T08:32:15.037Z,32.52
2023-05-11T08:34:41.792Z,32.72
2023-05-11T08:37:08.863Z,32.70
2023-05-11T08:39:46.719Z,32.88
2023-05-11T08:42:18.021Z,32.69
2023-05-11T08:44:44.808Z,32.50
2023-05-11T08:47:22.810Z,32.49
2023-05-11T08:49:52.548Z,32.50
2023-05-11T08:52:19.687Z,32.84
2023-05-11T08:54:47.147Z,32.94
2023-05-11T08:57:14.508Z,32.40
2023-05-11T08:59:42.160Z,32.21
2023-05-11T09:02:10.781Z,32.54
2023-05-11T09:04:37.547Z,32.50
2023-05-11T09:07:04.510Z,32.06
2023-05-11T09:09:31.237Z,32.36
2023-05-11T09:11:58.762Z,32.27
2023-05-11T09:14:27.677Z,32.20
2023-05-11T09:16:54.947Z,32.52
2023-05-11T09:19:22.017Z,32.70
2023-05-11T09:21:49.112Z,32.61
2023-05-11T09:24:15.867Z,32.53
2023-05-11T09:26:43.010Z,32.49
2023-05-11T09:29:09.729Z,32.59
2023-05-11T09:31:43.789Z,32.58
2023-05-11T09:34:14.561Z,32.17
2023-05-11T09:36:42.951Z,32.30
2023-05-11T09:39:15.298Z,32.30
2023-05-11T09:41:43.081Z,32.49
2023-05-11T09:44:10.657Z,32.31
2023-05-11T09:46:38.766Z,32.51
2023-05-11T09:49:06.279Z,32.47
2023-05-11T09:51:38.166Z,32.36
2023-05-11T09:54:19.058Z,32.00
2023-05-11T09:56:54.396Z,32.20
2023-05-11T09:59:41.486Z,31.90
2023-05-11T10:02:21.576Z,31.83
2023-05-11T10:04:49.677Z,31.37
2023-05-11T10:07:33.177Z,32.03
2023-05-11T10:10:01.734Z,32.00
2023-05-11T10:12:30.313Z,31.77
2023-05-11T10:15:07.071Z,32.01
2023-05-11T10:17:34.378Z,31.52
2023-05-11T10:20:01.820Z,31.89
2023-05-11T10:22:29.363Z,31.01
2023-05-11T10:24:59.523Z,31.10
2023-05-11T10:27:27.115Z,31.07
2023-05-11T10:29:54.157Z,30.71
2023-05-11T10:32:21.644Z,30.57
2023-05-11T10:34:48.558Z,30.55
2023-05-11T10:37:16.253Z,30.94
2023-05-11T10:39:44.103Z,29.86
2023-05-11T10:42:29.832Z,30.21
2023-05-11T10:44:59.221Z,29.97
2023-05-11T10:48:03.989Z,29.62
2023-05-11T10:50:43.361Z,29.36
2023-05-11T10:53:38.121Z,29.70
2023-05-11T10:56:36.634Z,29.11
2023-05-11T10:59:09.724Z,29.57
2023-05-11T11:01:43.453Z,28.69
2023-05-11T11:04:14.356Z,28.80
2023-05-11T11:06:42.267Z,28.43
2023-05-11T11:09:13.126Z,28.48
2023-05-11T11:11:46.560Z,27.64
2023-05-11T11:14:14.856Z,27.34
2023-05-11T11:16:41.989Z,26.55
2023-05-11T11:19:30.973Z,26.84
2023-05-11T11:22:00.222Z,26.35
2023-05-11T11:24:42.898Z,27.06
2023-05-11T11:27:09.796Z,27.01
2023-05-11T11:29:37.543Z,27.09
2023-05-11T11:32:19.593Z,27.14
2023-05-11T11:34:47.194Z,27.79
2023-05-11T11:37:15.058Z,27.54
2023-05-11T11:39:42.074Z,26.29
2023-05-11T11:42:28.014Z,26.42
2023-05-11T11:44:55.578Z,26.41
2023-05-11T11:47:22.990Z,25.96
2023-05-11T11:49:51.498Z,25.58
2023-05-11T11:52:27.481Z,25.21
2023-05-11T11:54:55.905Z,25.62
2023-05-11T11:57:34.827Z,25.73
2023-05-11T12:00:06.939Z,26.47
2023-05-11T12:02:34.159Z,26.57
2023-05-11T12:05:22.536Z,26.67
2023-05-11T12:07:50.584Z,26.96
2023-05-11T12:10:18.392Z,27.16
2023-05-11T12:12:46.122Z,26.08
2023-05-11T12:15:29.755Z,25.45
2023-05-11T12:17:56.671Z,25.15
2023-05-11T12:20:24.048Z,25.75
2023-05-11T12:22:50.948Z,25.31
2023-05-11T12:25:19.436Z,24.88
2023-05-11T12:27:55.296Z,25.45
2023-05-11T12:30:23.907Z,24.63
2023-05-11T12:32:56.633Z,23.94
2023-05-11T12:35:33.876Z,24.38
2023-05-11T12:38:02.286Z,24.35
2023-05-11T12:40:29.470Z,24.29
2023-05-11T12:42:57.588Z,24.47
2023-05-11T12:45:25.447Z,24.85
2023-05-11T12:47:54.198Z,24.32
2023-05-11T12:50:21.542Z,24.82
2023-05-11T12:52:49.180Z,25.42
2023-05-11T12:55:29.252Z,25.85
2023-05-11T12:58:13.736Z,25.96
2023-05-11T13:00:54.348Z,25.02
2023-05-11T13:03:24.957Z,24.71
2023-05-11T13:05:52.386Z,23.97
2023-05-11T13:08:19.281Z,23.31
2023-05-11T13:10:48.221Z,23.20
2023-05-11T13:13:33.029Z,23.50
2023-05-11T13:16:00.622Z,24.13
2023-05-11T13:18:27.460Z,24.77
2023-05-11T13:21:07.637Z,25.07
2023-05-11T13:23:34.553Z,25.38
2023-05-11T13:26:01.596Z,25.47
2023-05-11T13:28:28.325Z,25.51
2023-05-11T13:31:00.208Z,25.60
2023-05-11T13:33:27.503Z,24.76
2023-05-11T13:35:54.541Z,25.30
2023-05-11T13:38:21.242Z,25.38
2023-05-11T13:40:48.521Z,25.31
2023-05-11T13:43:15.325Z,25.25
2023-05-11T13:45:42.395Z,25.59
2023-05-11T13:48:09.152Z,25.67
2023-05-11T13:50:36.251Z,26.08
2023-05-11T13:53:03.018Z,25.66
2023-05-11T13:55:30.692Z,25.62
2023-05-11T13:57:57.985Z,25.66
2023-05-11T14:00:25.318Z,25.57
2023-05-11T14:02:52.323Z,25.52
2023-05-11T14:05:19.777Z,24.58
2023-05-11T14:07:48.185Z,25.36
2023-05-11T14:10:16.749Z,25.18
2023-05-11T14:12:43.486Z,25.49
2023-05-11T14:15:11.297Z,24.65
2023-05-11T14:17:38.148Z,24.85
2023-05-11T14:20:06.654Z,25.22
2023-05-11T14:22:33.383Z,25.57
2023-05-11T14:25:01.896Z,24.86
2023-05-11T14:27:29.815Z,25.44
2023-05-11T14:29:56.937Z,25.08
2023-05-11T14:32:23.727Z,24.92
2023-05-11T14:34:50.842Z,24.65
2023-05-11T14:37:17.597Z,24.27
2023-05-11T14:39:44.989Z,24.37
2023-05-11T14:42:11.720Z,23.92
2023-05-11T14:44:38.813Z,24.77
2023-05-11T14:47:05.859Z,25.27
2023-05-11T14:49:32.945Z,25.57
2023-05-11T14:51:59.849Z,25.91
2023-05-11T14:54:26.931Z,26.21
2023-05-11T14:56:56.208Z,26.21
2023-05-11T14:59:24.427Z,26.68
2023-05-11T15:01:51.301Z,27.23
2023-05-11T15:04:18.762Z,27.47
2023-05-11T15:06:45.536Z,26.08
2023-05-11T15:09:12.560Z,25.47
2023-05-11T15:11:39.268Z,25.18
2023-05-11T15:14:07.114Z,24.77
2023-05-11T15:16:33.877Z,25.36
2023-05-11T15:19:01.085Z,24.78
2023-05-11T15:21:27.911Z,25.90
2023-05-11T15:23:55.211Z,25.52
2023-05-11T15:26:23.179Z,26.30
2023-05-11T15:28:50.354Z,26.54
2023-05-11T15:31:17.396Z,25.13
2023-05-11T15:33:45.059Z,25.33
2023-05-11T15:36:15.321Z,26.56
2023-05-11T15:38:42.777Z,26.00
2023-05-11T15:41:09.677Z,25.73
2023-05-11T15:43:36.696Z,25.72
2023-05-11T15:46:04.104Z,26.03
2023-05-11T15:48:31.352Z,25.67
2023-05-11T15:50:59.496Z,26.16
2023-05-11T15:53:26.896Z,26.25
2023-05-11T15:55:55.496Z,26.23
2023-05-11T15:58:23.089Z,25.78
2023-05-11T16:00:50.003Z,26.15
2023-05-11T16:03:17.471Z,25.32
2023-05-11T16:05:44.914Z,25.53
2023-05-11T16:08:12.533Z,25.32
2023-05-11T16:10:39.353Z,25.26
2023-05-11T16:13:06.410Z,25.80
2023-05-11T16:15:33.151Z,25.93
2023-05-11T16:18:03.088Z,25.76
2023-05-11T16:20:31.686Z,25.87
2023-05-11T16:22:58.690Z,25.65
2023-05-11T16:25:25.396Z,25.63
2023-05-11T16:27:52.409Z,25.63
2023-05-11T16:30:25.046Z,25.67
2023-05-11T16:32:53.258Z,25.72
2023-05-11T16:35:20.455Z,25.81
2023-05-11T16:37:48.021Z,25.81
2023-05-11T16:40:15.299Z,25.92
2023-05-11T16:42:42.499Z,26.30
2023-05-11T16:45:09.790Z,25.66
2023-05-11T16:47:36.932Z,26.07
2023-05-11T16:50:03.871Z,26.08
2023-05-11T16:52:30.951Z,25.98
2023-05-11T16:54:59.098Z,26.13
2023-05-11T16:57:26.809Z,26.01
2023-05-11T16:59:53.582Z,26.14
2023-05-11T17:02:21.258Z,26.16
2023-05-11T17:04:48.941Z,26.05
2023-05-11T17:07:16.208Z,26.41
2023-05-11T17:09:43.064Z,26.09
2023-05-11T17:12:12.998Z,26.23
2023-05-11T17:14:39.725Z,26.17
2023-05-11T17:17:08.132Z,26.47
2023-05-11T17:19:34.925Z,26.77
2023-05-11T17:22:02.250Z,26.57
2023-05-11T17:24:29.011Z,26.80
2023-05-11T17:26:56.154Z,26.43
2023-05-11T17:29:23.264Z,26.93
2023-05-11T17:31:51.821Z,26.33
2023-05-11T17:34:19.732Z,26.79
2023-05-11T17:36:47.960Z,26.54
2023-05-11T17:39:16.403Z,26.62
2023-05-11T17:41:43.553Z,27.08
2023-05-11T17:44:10.370Z,26.41
2023-05-11T17:46:37.448Z,26.50
2023-05-11T17:49:04.293Z,26.97
2023-05-11T17:51:31.324Z,26.98
2023-05-11T17:53:58.107Z,27.07
2023-05-11T17:56:25.208Z,27.23
2023-05-11T17:58:51.975Z,27.05
2023-05-11T18:01:19.758Z,27.25
2023-05-11T18:03:46.899Z,26.94
2023-05-11T18:06:14.703Z,26.61
2023-05-11T18:08:41.586Z,27.13
2023-05-11T18:11:10.920Z,26.90
2023-05-11T18:13:37.729Z,26.51
2023-05-11T18:16:05.135Z,26.75
2023-05-11T18:18:32.073Z,27.34
2023-05-11T18:21:04.955Z,27.44
2023-05-11T18:23:32.266Z,26.54
2023-05-11T18:25:59.484Z,26.79
2023-05-11T18:28:26.338Z,27.12
2023-05-11T18:30:54.226Z,27.46
2023-05-11T18:33:21.256Z,26.94
2023-05-11T18:35:48.455Z,27.07
2023-05-11T18:38:16.654Z,27.16
2023-05-11T18:40:44.867Z,27.53
2023-05-11T18:43:11.652Z,27.63
2023-05-11T18:45:40.915Z,27.96
2023-05-11T18:48:08.036Z,27.69
2023-05-11T18:50:35.854Z,27.65
2023-05-11T18:53:04.036Z,27.71
2023-05-11T18:55:38.162Z,27.46
2023-05-11T18:58:08.042Z,28.40
2023-05-11T19:00:37.508Z,28.17
2023-05-11T19:03:04.510Z,27.70
2023-05-11T19:05:31.701Z,28.15
2023-05-11T19:07:58.968Z,28.05
2023-05-11T19:10:26.112Z,28.20
2023-05-11T19:12:53.020Z,28.28
2023-05-11T19:15:20.053Z,27.71
2023-05-11T19:17:47.069Z,28.01
2023-05-11T19:20:14.869Z,27.97
2023-05-11T19:22:41.663Z,28.04
2023-05-11T19:25:09.461Z,28.02
2023-05-11T19:27:36.726Z,27.91
2023-05-11T19:30:04.703Z,28.52
2023-05-11T19:32:31.617Z,28.50
2023-05-11T19:34:59.807Z,28.53
2023-05-11T19:37:26.860Z,28.23
2023-05-11T19:39:55.044Z,28.46
2023-05-11T19:42:38.281Z,28.27
2023-05-11T19:45:13.677Z,28.72
2023-05-11T19:47:40.925Z,28.27
2023-05-11T19:50:09.620Z,28.35
2023-05-11T19:52:36.780Z,28.31
2023-05-11T19:55:04.752Z,28.60
2023-05-11T19:57:37.021Z,28.77
2023-05-11T20:00:09.837Z,28.61
2023-05-11T20:02:36.794Z,28.26
2023-05-11T20:05:04.628Z,28.64
2023-05-11T20:07:32.064Z,28.79
2023-05-11T20:09:59.196Z,28.66
2023-05-11T20:12:26.000Z,28.65
2023-05-11T20:14:53.263Z,28.49
2023-05-11T20:17:20.106Z,28.82
2023-05-11T20:19:47.249Z,28.75
2023-05-11T20:22:14.227Z,28.88
2023-05-11T20:24:42.058Z,28.84
2023-05-11T20:27:11.043Z,28.68
2023-05-11T20:29:40.348Z,28.63
2023-05-11T20:32:08.282Z,29.02
2023-05-11T20:34:35.691Z,28.65
2023-05-11T20:37:02.554Z,28.97
2023-05-11T20:39:29.756Z,29.09
2023-05-11T20:42:01.099Z,28.61
2023-05-11T20:44:28.259Z,28.65
2023-05-11T20:46:55.055Z,28.89
2023-05-11T20:49:37.616Z,28.58
2023-05-11T20:52:05.913Z,29.02
2023-05-11T20:54:35.003Z,28.65
2023-05-11T20:57:03.102Z,28.79
2023-05-11T21:02:02.998Z,29.26
2023-05-11T21:04:31.420Z,28.96
2023-05-11T21:06:58.411Z,28.86
2023-05-11T21:09:25.667Z,29.01
2023-05-11T21:11:52.576Z,28.94
2023-05-11T21:14:20.264Z,29.23
2023-05-11T21:16:47.786Z,29.27
2023-05-11T21:19:16.508Z,29.31
2023-05-11T21:21:43.423Z,29.17
2023-05-11T21:24:10.635Z,29.13
2023-05-11T21:26:37.683Z,29.03
2023-05-11T21:29:07.678Z,29.33
2023-05-11T21:31:34.507Z,29.56
2023-05-11T21:34:01.743Z,29.32
2023-05-11T21:36:28.677Z,29.58
2023-05-11T21:38:55.672Z,29.15
2023-05-11T21:41:22.578Z,29.12
2023-05-11T21:43:50.475Z,29.31
2023-05-11T21:46:17.212Z,29.58
2023-05-11T21:48:44.323Z,29.19
2023-05-11T21:51:11.451Z,29.31
2023-05-11T21:53:38.477Z,29.71
2023-05-11T21:56:05.346Z,29.85
2023-05-11T21:58:32.679Z,29.41
2023-05-11T22:00:59.422Z,29.96
2023-05-11T22:03:29.926Z,29.49
2023-05-11T22:05:57.128Z,29.88
2023-05-11T22:08:24.207Z,29.49
2023-05-11T22:10:50.928Z,29.94
2023-05-11T22:13:17.956Z,29.90
2023-05-11T22:15:44.687Z,29.83
2023-05-11T22:18:11.762Z,29.99
2023-05-11T22:20:38.461Z,30.04
2023-05-11T22:23:05.633Z,29.61
2023-05-11T22:25:32.452Z,30.10
2023-05-11T22:28:00.087Z,30.14
2023-05-11T22:30:26.834Z,30.16
2023-05-11T22:32:54.110Z,30.17
2023-05-11T22:35:21.308Z,29.86
2023-05-11T22:37:48.689Z,29.96
2023-05-11T22:40:15.453Z,30.11
2023-05-11T22:42:42.533Z,30.29
2023-05-11T22:45:09.804Z,30.39
2023-05-11T22:47:36.929Z,29.95
2023-05-11T22:50:03.954Z,29.94
2023-05-11T22:52:30.984Z,30.44
2023-05-11T22:54:59.006Z,30.04
2023-05-11T22:57:26.557Z,30.51
2023-05-11T22:59:53.258Z,30.38
2023-05-11T23:02:20.496Z,30.19
2023-05-11T23:04:51.958Z,30.17
2023-05-11T23:07:19.436Z,30.28
2023-05-11T23:09:46.370Z,30.24
2023-05-11T23:12:13.519Z,30.41
2023-05-11T23:14:40.288Z,30.47
2023-05-11T23:17:07.379Z,30.76
2023-05-11T23:19:34.263Z,30.62
2023-05-11T23:22:01.278Z,30.41
2023-05-11T23:24:29.010Z,30.60
2023-05-11T23:26:55.993Z,30.73
2023-05-11T23:29:22.947Z,30.87
2023-05-11T23:31:51.078Z,30.80
2023-05-11T23:34:18.388Z,30.73
2023-05-11T23:36:45.705Z,30.73
2023-05-11T23:39:12.418Z,30.66
2023-05-11T23:41:39.550Z,30.86
2023-05-11T23:44:06.283Z,30.88
2023-05-11T23:46:33.311Z,31.09
2023-05-11T23:49:00.025Z,30.88
2023-05-11T23:51:27.068Z,30.71
2023-05-11T23:53:53.820Z,30.96
2023-05-11T23:56:21.641Z,31.08
2023-05-11T23:58:50.408Z,30.74
